Time;durP1;ratioP1;P1;durP2;ratioP2;P2;SDS_P1;SDS_P2;PMS_P1;PMS_P2;Temp;Humidity;BMP_temperature;BMP_pressure;BME280_temperature;BME280_humidity;BME280_pressure;Samples;Min_cycle;Max_cycle;Signal;HPM_P1;HPM_P2
2023/06/08 00:01:55;;;;;;;7.38;4.18;;;14.50;99.90;;;;;;5071019;28;20226;-62
2023/06/08 00:04:30;;;;;;;8.90;3.72;;;14.50;99.90;;;;;;5071204;28;20176;-63
2023/06/08 00:06:56;;;;;;;7.50;3.88;;;14.40;99.90;;;;;;5070907;28;20652;-64
2023/06/08 00:09:21;;;;;;;14.32;4.72;;;14.40;99.90;;;;;;5070153;28;20257;-64
2023/06/08 00:11:48;;;;;;;7.88;3.88;;;14.30;99.90;;;;;;5051025;28;20200;-63
2023/06/08 00:14:13;;;;;;;10.70;3.95;;;14.20;99.90;;;;;;5050885;28;20301;-63
2023/06/08 00:16:39;;;;;;;10.13;3.72;;;14.10;99.90;;;;;;5051148;28;20200;-62
2023/06/08 00:19:07;;;;;;;12.82;4.10;;;14.10;99.90;;;;;;5051093;28;20181;-63
2023/06/08 00:21:33;;;;;;;12.45;3.92;;;14.10;99.90;;;;;;5050838;28;20173;-65
2023/06/08 00:23:59;;;;;;;10.02;3.80;;;14.10;99.90;;;;;;5050899;28;20606;-65
2023/06/08 00:26:26;;;;;;;15.70;3.88;;;14.00;99.90;;;;;;5050774;28;20165;-62
2023/06/08 00:28:52;;;;;;;10.77;3.75;;;13.90;99.90;;;;;;5050532;28;20592;-65
2023/06/08 00:31:19;;;;;;;13.50;4.18;;;13.80;99.90;;;;;;5050762;28;20175;-65
2023/06/08 00:33:45;;;;;;;12.85;3.90;;;13.80;99.90;;;;;;5033229;28;20177;-65
2023/06/08 00:36:12;;;;;;;13.75;4.57;;;13.70;99.90;;;;;;5050629;28;20305;-65
2023/06/08 00:38:38;;;;;;;11.52;4.30;;;13.70;99.90;;;;;;5053389;28;20251;-64
2023/06/08 00:41:05;;;;;;;7.55;3.60;;;13.70;99.90;;;;;;5069826;28;20647;-65
2023/06/08 00:43:30;;;;;;;9.80;4.20;;;13.70;99.90;;;;;;5064550;28;20227;-65
2023/06/08 00:45:56;;;;;;;8.70;3.90;;;13.60;99.90;;;;;;5050749;28;20170;-65
2023/06/08 00:48:25;;;;;;;8.57;4.35;;;13.50;99.90;;;;;;5050437;28;20211;-66
2023/06/08 00:50:52;;;;;;;8.38;3.53;;;13.50;99.90;;;;;;5050576;28;20173;-64
2023/06/08 00:53:18;;;;;;;11.38;4.25;;;13.50;99.90;;;;;;5050404;28;20165;-64
2023/06/08 00:55:44;;;;;;;14.27;4.10;;;13.50;99.90;;;;;;5056556;28;20662;-64
2023/06/08 00:58:13;;;;;;;11.63;3.90;;;13.40;99.90;;;;;;5070471;28;20181;-65
2023/06/08 01:00:43;;;;;;;9.85;4.20;;;13.40;99.90;;;;;;5070341;28;20658;-64
2023/06/08 01:03:10;;;;;;;9.55;4.20;;;13.30;99.90;;;;;;5070588;28;20202;-65
2023/06/08 01:05:38;;;;;;;9.85;4.10;;;13.30;99.90;;;;;;5070418;28;20180;-65
2023/06/08 01:08:19;;;;;;;11.95;4.07;;;13.20;99.90;;;;;;5070280;28;20291;-64
2023/06/08 01:11:14;;;;;;;15.18;4.68;;;13.20;99.90;;;;;;5070280;28;20251;-64
2023/06/08 01:14:00;;;;;;;7.65;3.92;;;13.10;99.90;;;;;;5070287;28;20196;-64
2023/06/08 01:16:32;;;;;;;16.67;4.05;;;13.00;99.90;;;;;;5070895;28;20179;-65
2023/06/08 01:19:01;;;;;;;14.40;3.97;;;13.00;99.90;;;;;;5070657;28;20169;-64
2023/06/08 01:21:56;;;;;;;6.00;3.80;;;13.00;99.90;;;;;;5074014;28;20634;-65
2023/06/08 01:24:30;;;;;;;9.18;4.00;;;13.00;99.90;;;;;;5074068;28;20218;-64
2023/06/08 01:26:57;;;;;;;10.50;4.13;;;12.90;99.90;;;;;;5073874;28;20172;-65
2023/06/08 01:29:27;;;;;;;10.57;4.25;;;12.90;99.90;;;;;;5073738;28;20240;-65
2023/06/08 01:31:53;;;;;;;10.07;4.03;;;12.80;99.90;;;;;;5056371;28;20160;-65
2023/06/08 01:34:20;;;;;;;12.93;4.07;;;12.70;99.90;;;;;;5073723;28;20552;-64
2023/06/08 01:37:11;;;;;;;7.87;4.30;;;12.80;99.90;;;;;;5073661;28;20220;-65
2023/06/08 01:40:03;;;;;;;10.60;4.20;;;12.80;99.90;;;;;;5055789;28;20195;-65
2023/06/08 01:42:29;;;;;;;11.60;4.53;;;12.70;99.90;;;;;;5073789;28;20176;-65
2023/06/08 01:45:17;;;;;;;11.32;4.45;;;12.70;99.90;;;;;;5055834;28;20214;-65
2023/06/08 01:47:56;;;;;;;9.57;4.30;;;12.60;99.90;;;;;;5073500;28;20219;-66
2023/06/08 01:50:22;;;;;;;10.23;4.45;;;12.60;99.90;;;;;;5073430;28;20215;-65
2023/06/08 01:52:48;;;;;;;8.80;4.27;;;12.60;99.90;;;;;;5073481;28;20704;-65
2023/06/08 01:55:21;;;;;;;6.93;4.10;;;12.60;99.90;;;;;;5073329;28;20176;-66
2023/06/08 01:57:47;;;;;;;10.03;4.27;;;12.50;99.90;;;;;;5073252;28;20198;-65
2023/06/08 02:00:15;;;;;;;11.10;4.40;;;12.50;99.90;;;;;;5073265;28;20172;-65
2023/06/08 02:02:41;;;;;;;14.13;4.77;;;12.50;99.90;;;;;;5073354;28;20161;-66
2023/06/08 02:05:10;;;;;;;10.77;4.43;;;12.50;99.90;;;;;;5073344;28;20229;-66
2023/06/08 02:07:36;;;;;;;14.38;4.15;;;12.50;99.90;;;;;;5073186;28;20277;-64
2023/06/08 02:10:04;;;;;;;10.23;4.40;;;12.50;99.90;;;;;;5073191;28;20229;-64
2023/06/08 02:12:29;;;;;;;8.15;4.38;;;12.50;99.90;;;;;;5073223;28;20172;-64
2023/06/08 02:14:55;;;;;;;11.33;4.43;;;12.50;99.90;;;;;;5072988;28;20184;-63
2023/06/08 02:17:27;;;;;;;7.30;4.07;;;12.50;99.90;;;;;;5072792;28;20214;-64
2023/06/08 02:19:56;;;;;;;13.25;4.32;;;12.50;99.90;;;;;;5073075;28;20188;-64
2023/06/08 02:22:23;;;;;;;15.90;4.13;;;12.60;99.90;;;;;;5072889;28;20179;-64
2023/06/08 02:24:49;;;;;;;10.53;4.13;;;12.50;99.90;;;;;;5072763;28;20203;-64
2023/06/08 02:27:15;;;;;;;13.17;4.90;;;12.50;99.90;;;;;;5072765;28;20255;-64
2023/06/08 02:29:41;;;;;;;7.70;4.28;;;12.50;99.90;;;;;;5072484;28;20183;-64
2023/06/08 02:32:07;;;;;;;12.17;4.30;;;12.40;99.90;;;;;;5053573;28;20267;-64
2023/06/08 02:34:35;;;;;;;15.73;4.37;;;12.30;99.90;;;;;;5072550;28;20242;-64
2023/06/08 02:37:01;;;;;;;7.87;4.30;;;12.40;99.90;;;;;;5072272;28;20733;-65
2023/06/08 02:39:26;;;;;;;12.02;4.78;;;12.30;99.90;;;;;;5072666;28;20173;-64
2023/06/08 02:41:52;;;;;;;11.43;4.30;;;12.30;99.90;;;;;;5067667;28;20217;-65
2023/06/08 02:44:17;;;;;;;13.63;5.17;;;12.10;99.90;;;;;;5055429;28;20230;-66
2023/06/08 02:46:43;;;;;;;11.53;4.57;;;12.20;99.90;;;;;;5065601;28;20526;-66
2023/06/08 02:49:09;;;;;;;14.17;5.00;;;12.20;99.90;;;;;;5052534;28;20220;-66
2023/06/08 02:51:36;;;;;;;10.87;4.43;;;12.20;99.90;;;;;;5065861;28;20275;-66
2023/06/08 02:54:02;;;;;;;10.93;5.00;;;12.00;99.90;;;;;;5056607;28;20295;-65
2023/06/08 02:56:28;;;;;;;11.70;4.70;;;12.10;99.90;;;;;;5034518;28;20603;-66
2023/06/08 02:58:54;;;;;;;14.63;5.20;;;12.00;99.90;;;;;;5058685;28;20234;-65
2023/06/08 03:01:20;;;;;;;10.53;5.33;;;12.00;99.90;;;;;;5072053;28;20200;-65
2023/06/08 03:03:46;;;;;;;11.77;4.30;;;11.90;99.90;;;;;;5071875;28;20173;-63
2023/06/08 03:06:14;;;;;;;13.43;5.27;;;11.90;99.90;;;;;;5072121;28;20180;-65
2023/06/08 03:08:40;;;;;;;12.23;5.30;;;11.90;99.90;;;;;;5060207;28;20216;-66
2023/06/08 03:11:05;;;;;;;14.57;5.60;;;11.90;99.90;;;;;;5051851;28;20166;-65
2023/06/08 03:13:31;;;;;;;12.93;5.07;;;11.90;99.90;;;;;;5053967;28;20177;-66
2023/06/08 03:15:56;;;;;;;12.80;4.90;;;14.50;99.90;;;;;;5071661;28;20169;-66
2023/06/08 03:18:22;;;;;;;16.40;5.23;;;11.90;99.90;;;;;;5062120;28;20234;-67
2023/06/08 03:20:51;;;;;;;10.53;4.87;;;11.80;99.90;;;;;;5052012;28;20165;-66
2023/06/08 03:23:19;;;;;;;12.37;4.80;;;11.80;99.90;;;;;;5056702;28;20310;-66
2023/06/08 03:25:48;;;;;;;14.67;5.37;;;11.80;99.90;;;;;;5071681;28;20222;-66
2023/06/08 03:28:15;;;;;;;12.13;5.67;;;11.80;99.90;;;;;;5070603;28;20772;-66
2023/06/08 03:30:41;;;;;;;11.00;4.80;;;11.80;99.90;;;;;;5052223;28;20174;-65
2023/06/08 03:33:07;;;;;;;11.97;5.10;;;11.80;99.90;;;;;;5069973;28;20310;-66
2023/06/08 03:35:32;;;;;;;13.03;5.13;;;11.70;99.90;;;;;;5058686;28;20620;-66
2023/06/08 03:37:58;;;;;;;10.67;4.60;;;11.80;99.90;;;;;;5057526;28;20546;-66
2023/06/08 03:40:23;;;;;;;10.57;4.97;;;12.00;99.90;;;;;;5053295;28;20572;-64
2023/06/08 03:42:50;;;;;;;16.93;5.43;;;12.00;99.90;;;;;;5051029;28;20671;-64
2023/06/08 03:45:17;;;;;;;8.23;4.53;;;11.90;99.90;;;;;;5051191;28;20585;-64
2023/06/08 03:47:43;;;;;;;18.03;5.20;;;11.80;99.90;;;;;;5051380;28;20563;-64
2023/06/08 03:50:11;;;;;;;13.43;5.33;;;11.90;99.90;;;;;;5056262;28;20208;-65
2023/06/08 03:52:38;;;;;;;13.67;5.97;;;11.80;99.90;;;;;;5062144;28;20164;-65
2023/06/08 03:55:08;;;;;;;12.90;5.83;;;11.80;99.90;;;;;;5070912;28;20255;-65
2023/06/08 03:57:34;;;;;;;15.20;5.80;;;11.90;99.90;;;;;;5070922;28;20176;-65
2023/06/08 03:59:59;;;;;;;10.63;5.90;;;11.90;99.90;;;;;;5071271;28;20184;-66
2023/06/08 04:02:25;;;;;;;12.80;6.33;;;11.90;99.90;;;;;;5071058;28;20187;-65
2023/06/08 04:04:53;;;;;;;13.40;6.17;;;11.90;99.90;;;;;;5071330;28;20191;-65
2023/06/08 04:07:20;;;;;;;14.27;6.80;;;11.90;99.90;;;;;;5070990;28;20171;-65
2023/06/08 04:09:46;;;;;;;10.80;6.07;;;12.00;99.90;;;;;;5070905;28;20180;-65
2023/06/08 04:12:12;;;;;;;15.45;6.53;;;12.10;99.90;;;;;;5070970;28;20650;-66
2023/06/08 04:14:38;;;;;;;8.98;5.90;;;12.00;99.90;;;;;;5071080;28;20178;-65
2023/06/08 04:17:04;;;;;;;12.77;5.70;;;12.00;99.90;;;;;;5052998;28;20627;-64
2023/06/08 04:19:29;;;;;;;12.53;6.33;;;11.90;99.90;;;;;;5070818;28;20265;-66
2023/06/08 04:21:56;;;;;;;13.07;6.23;;;11.80;99.90;;;;;;5070890;28;20533;-66
2023/06/08 04:24:25;;;;;;;13.83;5.93;;;11.80;99.90;;;;;;5070936;28;20180;-65
2023/06/08 04:26:51;;;;;;;12.17;5.57;;;11.80;99.90;;;;;;5070766;28;20199;-63
2023/06/08 04:29:17;;;;;;;8.27;5.60;;;11.70;99.90;;;;;;5070907;28;20675;-66
2023/06/08 04:31:43;;;;;;;14.80;6.10;;;11.70;99.90;;;;;;5070849;28;20172;-64
2023/06/08 04:34:09;;;;;;;14.53;5.50;;;11.70;99.90;;;;;;5070745;28;20248;-65
2023/06/08 04:36:34;;;;;;;11.07;5.87;;;11.60;99.90;;;;;;5070432;28;20228;-64
2023/06/08 04:39:01;;;;;;;14.93;6.03;;;11.70;99.90;;;;;;5070576;28;20168;-63
2023/06/08 04:41:29;;;;;;;12.50;5.83;;;11.70;99.90;;;;;;5070758;28;20172;-64
2023/06/08 04:43:55;;;;;;;9.60;5.80;;;11.70;99.90;;;;;;5070835;28;20234;-63
2023/06/08 04:46:25;;;;;;;15.03;5.57;;;11.80;99.90;;;;;;5070596;28;20172;-64
2023/06/08 04:48:51;;;;;;;10.77;4.80;;;11.80;99.90;;;;;;5070561;28;20212;-65
2023/06/08 04:51:17;;;;;;;11.47;5.00;;;11.70;99.90;;;;;;5070615;28;20724;-64
2023/06/08 04:53:43;;;;;;;8.60;4.87;;;11.80;99.90;;;;;;5063930;28;20658;-65
2023/06/08 04:56:18;;;;;;;10.90;4.93;;;11.80;99.90;;;;;;5055411;28;20646;-65
2023/06/08 04:58:43;;;;;;;12.43;5.50;;;11.90;99.90;;;;;;5064007;28;20188;-65
2023/06/08 05:01:09;;;;;;;8.77;4.63;;;11.80;99.90;;;;;;5054410;28;20185;-66
2023/06/08 05:03:34;;;;;;;12.57;5.47;;;11.90;99.90;;;;;;5058244;28;20177;-66
2023/06/08 05:06:00;;;;;;;13.60;5.50;;;11.80;99.90;;;;;;5072504;28;20255;-66
2023/06/08 05:08:26;;;;;;;17.33;6.07;;;11.70;99.90;;;;;;5071282;28;20196;-64
2023/06/08 05:10:51;;;;;;;14.07;5.17;;;11.60;99.90;;;;;;5074169;28;20169;-66
2023/06/08 05:13:17;;;;;;;13.97;5.30;;;11.80;99.90;;;;;;5074167;28;20172;-65
2023/06/08 05:15:42;;;;;;;18.43;5.33;;;11.90;99.90;;;;;;5074052;28;20508;-66
2023/06/08 05:18:08;;;;;;;11.70;4.97;;;11.80;99.90;;;;;;5074151;28;20181;-65
2023/06/08 05:20:34;;;;;;;11.60;5.90;;;11.90;99.90;;;;;;5073817;28;20176;-65
2023/06/08 05:22:59;;;;;;;12.10;5.23;;;12.00;99.90;;;;;;5074051;28;20575;-66
2023/06/08 05:25:26;;;;;;;10.90;4.67;;;12.00;99.90;;;;;;5074199;28;20169;-66
2023/06/08 05:27:52;;;;;;;13.60;5.37;;;12.10;99.90;;;;;;5073701;28;20188;-66
2023/06/08 05:30:17;;;;;;;7.95;4.97;;;12.10;99.90;;;;;;5073950;28;20241;-66
2023/06/08 05:32:43;;;;;;;13.83;5.03;;;;;;;;;;5073806;28;20245;-66
2023/06/08 05:35:09;;;;;;;9.27;5.30;;;12.00;99.90;;;;;;5073641;28;20184;-67
2023/06/08 05:37:35;;;;;;;10.60;4.77;;;12.10;99.90;;;;;;5073852;28;20168;-67
2023/06/08 05:40:00;;;;;;;9.33;4.90;;;12.20;99.90;;;;;;5073911;28;20176;-67
2023/06/08 05:42:26;;;;;;;12.53;4.70;;;12.30;99.90;;;;;;5073716;28;20195;-65
2023/06/08 05:44:51;;;;;;;12.20;4.93;;;12.20;99.90;;;;;;5073640;28;20307;-65
2023/06/08 05:47:17;;;;;;;8.57;4.83;;;12.20;99.90;;;;;;5073685;28;20654;-64
2023/06/08 05:49:43;;;;;;;7.73;4.93;;;12.10;99.90;;;;;;5073585;28;20273;-64
2023/06/08 05:52:08;;;;;;;8.52;4.90;;;12.10;99.90;;;;;;5073602;28;20758;-65
2023/06/08 05:54:34;;;;;;;16.23;5.17;;;12.20;99.90;;;;;;5073545;28;20160;-66
2023/06/08 05:57:01;;;;;;;9.27;4.87;;;12.30;99.90;;;;;;5069433;28;20173;-65
2023/06/08 05:59:26;;;;;;;10.73;5.30;;;12.30;99.90;;;;;;5053500;28;20203;-64
2023/06/08 06:01:53;;;;;;;10.30;5.50;;;12.30;99.90;;;;;;5053196;28;20702;-64
2023/06/08 06:04:18;;;;;;;11.77;5.37;;;12.30;99.90;;;;;;5057676;28;20184;-66
2023/06/08 06:06:44;;;;;;;12.70;5.47;;;12.30;99.90;;;;;;5051460;28;20185;-65
2023/06/08 06:09:11;;;;;;;8.80;4.77;;;12.50;99.90;;;;;;5038881;28;20235;-64
2023/06/08 06:11:37;;;;;;;11.20;4.90;;;12.40;99.90;;;;;;5066917;28;20172;-65
2023/06/08 06:14:03;;;;;;;11.35;5.13;;;12.50;99.90;;;;;;5073144;28;20681;-65
2023/06/08 06:16:28;;;;;;;9.45;4.50;;;12.60;99.90;;;;;;5073041;28;20647;-65
2023/06/08 06:18:54;;;;;;;11.30;4.63;;;12.70;99.90;;;;;;5072828;28;20179;-65
2023/06/08 06:21:20;;;;;;;10.70;4.40;;;12.80;99.90;;;;;;5070963;28;20260;-66
2023/06/08 06:23:46;;;;;;;12.27;4.90;;;12.70;99.90;;;;;;5061295;28;20226;-62
2023/06/08 06:26:12;;;;;;;9.43;5.07;;;12.70;99.90;;;;;;5072767;28;20181;-63
2023/06/08 06:28:40;;;;;;;11.25;5.03;;;12.90;99.90;;;;;;5072601;28;20204;-63
2023/06/08 06:31:06;;;;;;;13.30;5.45;;;12.90;99.90;;;;;;5072667;28;20176;-63
2023/06/08 06:33:32;;;;;;;11.63;5.37;;;13.00;99.90;;;;;;5072608;28;20201;-63
2023/06/08 06:35:58;;;;;;;11.77;4.97;;;12.90;99.90;;;;;;5070695;28;20303;-64
2023/06/08 06:38:25;;;;;;;9.95;5.03;;;12.90;99.90;;;;;;5065370;28;20259;-62
2023/06/08 06:40:52;;;;;;;13.15;5.00;;;13.10;99.90;;;;;;5058657;28;20645;-65
2023/06/08 06:43:21;;;;;;;10.32;4.70;;;13.00;99.90;;;;;;5056895;28;20194;-65
2023/06/08 06:45:50;;;;;;;10.80;4.55;;;13.00;99.90;;;;;;5069725;28;20210;-67
2023/06/08 06:48:25;;;;;;;12.52;5.38;;;13.00;99.90;;;;;;5073313;28;20242;-68
2023/06/08 06:50:51;;;;;;;9.90;5.00;;;12.90;99.90;;;;;;5060918;28;20203;-67
2023/06/08 06:53:16;;;;;;;13.02;5.00;;;12.90;99.90;;;;;;5051850;28;20173;-68
2023/06/08 06:55:42;;;;;;;8.20;4.72;;;13.00;99.90;;;;;;5034141;28;20693;-67
2023/06/08 06:58:08;;;;;;;10.52;5.22;;;13.20;99.90;;;;;;5052284;28;20177;-67
2023/06/08 07:00:37;;;;;;;11.32;5.03;;;13.20;99.90;;;;;;5052461;28;20284;-67
2023/06/08 07:03:09;;;;;;;12.43;5.10;;;13.50;99.90;;;;;;5052423;28;20177;-67
2023/06/08 07:05:36;;;;;;;12.35;4.97;;;13.50;99.90;;;;;;5051901;28;20165;-67
2023/06/08 07:08:02;;;;;;;8.90;4.60;;;;;;;;;;5054627;28;20268;-67
2023/06/08 07:10:29;;;;;;;7.38;4.70;;;13.60;99.90;;;;;;5067953;28;20197;-67
2023/06/08 07:12:56;;;;;;;12.88;5.00;;;13.70;99.90;;;;;;5071634;28;20208;-66
2023/06/08 07:15:22;;;;;;;12.45;4.30;;;14.00;99.90;;;;;;5071764;28;20172;-67
2023/06/08 07:17:48;;;;;;;10.25;4.28;;;13.90;99.90;;;;;;5059099;28;20180;-66
2023/06/08 07:20:13;;;;;;;12.68;4.45;;;14.20;99.90;;;;;;5069852;28;20204;-66
2023/06/08 07:22:39;;;;;;;7.63;4.53;;;14.40;99.90;;;;;;5071300;28;20188;-66
2023/06/08 07:25:05;;;;;;;8.23;4.55;;;14.10;99.90;;;;;;5072023;28;20180;-65
2023/06/08 07:27:31;;;;;;;11.43;4.63;;;14.30;99.90;;;;;;5072368;28;20177;-67
2023/06/08 07:29:57;;;;;;;9.82;4.60;;;14.30;99.90;;;;;;5070220;28;20267;-68
2023/06/08 07:32:22;;;;;;;14.50;4.70;;;14.40;99.90;;;;;;5072243;28;20175;-68
2023/06/08 07:34:48;;;;;;;9.93;4.80;;;14.50;99.90;;;;;;5072628;28;20177;-67
2023/06/08 07:37:14;;;;;;;15.23;4.60;;;14.50;99.90;;;;;;5071497;28;20216;-66
2023/06/08 07:39:39;;;;;;;12.23;4.18;;;14.40;99.90;;;;;;5070524;28;20260;-65
2023/06/08 07:42:05;;;;;;;9.50;4.88;;;14.10;99.90;;;;;;5071787;28;20172;-66
2023/06/08 07:44:31;;;;;;;9.43;4.68;;;14.20;99.90;;;;;;5071158;28;20164;-65
2023/06/08 07:46:57;;;;;;;9.75;5.05;;;14.40;99.90;;;;;;5069549;28;20670;-62
2023/06/08 07:49:23;;;;;;;13.05;4.95;;;14.10;99.90;;;;;;5065701;28;20571;-68
2023/06/08 07:51:50;;;;;;;124.75;9.85;;;14.30;99.90;;;;;;5051620;28;20165;-67
2023/06/08 07:54:19;;;;;;;15.85;4.75;;;14.40;99.90;;;;;;5051023;28;20201;-65
2023/06/08 07:56:46;;;;;;;8.52;4.70;;;14.50;99.90;;;;;;5068335;28;20657;-64
2023/06/08 07:59:12;;;;;;;11.15;4.60;;;14.40;99.90;;;;;;5068018;28;20225;-65
2023/06/08 08:01:37;;;;;;;9.38;4.82;;;14.50;99.90;;;;;;5033522;28;20309;-65
2023/06/08 08:04:03;;;;;;;11.35;5.15;;;14.60;99.90;;;;;;5053821;28;20181;-65
2023/06/08 08:06:29;;;;;;;10.18;4.40;;;14.60;99.90;;;;;;5052110;28;20214;-66
2023/06/08 08:08:54;;;;;;;13.85;4.82;;;14.70;99.90;;;;;;5051346;28;20249;-65
2023/06/08 08:11:20;;;;;;;7.85;4.45;;;14.60;99.90;;;;;;5051028;28;20172;-65
2023/06/08 08:13:46;;;;;;;8.15;4.45;;;14.70;99.90;;;;;;5063923;28;20176;-66
2023/06/08 08:16:12;;;;;;;8.00;4.78;;;14.80;99.90;;;;;;5071045;28;20173;-66
2023/06/08 08:18:38;;;;;;;9.32;4.40;;;14.90;99.90;;;;;;5071055;28;20202;-65
2023/06/08 08:21:03;;;;;;;16.38;4.70;;;15.00;99.90;;;;;;5064740;28;20205;-66
2023/06/08 08:23:29;;;;;;;11.88;4.90;;;15.00;99.90;;;;;;5043066;28;20180;-66
2023/06/08 08:25:55;;;;;;;6.68;4.43;;;15.10;99.90;;;;;;5070730;28;20172;-65
2023/06/08 08:28:20;;;;;;;12.32;4.80;;;15.40;99.90;;;;;;5069056;28;20204;-66
2023/06/08 08:30:46;;;;;;;7.47;4.13;;;15.50;99.90;;;;;;5056184;28;20229;-65
2023/06/08 08:33:12;;;;;;;9.43;4.95;;;15.50;99.90;;;;;;5040088;28;20177;-64
2023/06/08 08:35:38;;;;;;;9.73;4.88;;;15.60;99.90;;;;;;5061395;28;20326;-66
2023/06/08 08:38:03;;;;;;;9.45;4.25;;;15.80;99.90;;;;;;5074410;28;20682;-66
2023/06/08 08:40:29;;;;;;;11.73;4.90;;;16.10;99.90;;;;;;5074804;28;20252;-66
2023/06/08 08:43:06;;;;;;;10.30;4.82;;;16.00;99.90;;;;;;5074791;28;20210;-66
2023/06/08 08:45:34;;;;;;;6.70;4.20;;;16.40;99.90;;;;;;5074778;28;20717;-65
2023/06/08 08:48:01;;;;;;;6.95;4.40;;;17.00;99.90;;;;;;5074710;28;20200;-65
2023/06/08 08:50:33;;;;;;;8.57;4.57;;;17.00;99.90;;;;;;5074889;28;20283;-64
2023/06/08 08:53:00;;;;;;;13.65;4.43;;;17.20;99.90;;;;;;5074767;28;20179;-65
2023/06/08 08:55:33;;;;;;;7.78;4.30;;;17.30;99.90;;;;;;5074543;28;20631;-65
2023/06/08 08:58:00;;;;;;;7.22;4.38;;;17.80;99.90;;;;;;5074867;28;20229;-65
2023/06/08 09:00:26;;;;;;;9.15;4.43;;;18.20;99.90;;;;;;5074758;28;20248;-65
2023/06/08 09:02:52;;;;;;;8.30;4.47;;;18.40;99.90;;;;;;5074945;28;20168;-65
2023/06/08 09:05:18;;;;;;;8.35;3.67;;;18.80;99.90;;;;;;5074569;28;20619;-65
2023/06/08 09:07:43;;;;;;;11.18;4.15;;;19.20;99.90;;;;;;5074446;28;20207;-65
2023/06/08 09:10:12;;;;;;;8.02;4.00;;;18.90;99.90;;;;;;5074355;28;20180;-64
2023/06/08 09:12:43;;;;;;;12.80;3.95;;;19.20;99.90;;;;;;5056397;28;20172;-63
2023/06/08 09:15:16;;;;;;;9.23;3.75;;;19.40;99.90;;;;;;5074977;28;20204;-64
2023/06/08 09:17:44;;;;;;;10.38;3.75;;;19.50;99.90;;;;;;5074757;28;20184;-64
2023/06/08 09:20:11;;;;;;;14.95;4.07;;;20.00;99.90;;;;;;5074488;28;20226;-65
2023/06/08 09:22:41;;;;;;;21.05;5.38;;;20.00;99.90;;;;;;5074583;28;20179;-64
2023/06/08 09:25:07;;;;;;;5.15;3.53;;;20.10;99.90;;;;;;5074362;28;20182;-65
2023/06/08 09:27:33;;;;;;;7.53;3.55;;;20.40;99.90;;;;;;5073848;28;20196;-65
2023/06/08 09:30:00;;;;;;;10.52;3.40;;;20.40;99.90;;;;;;5073868;28;20212;-65
2023/06/08 09:32:36;;;;;;;10.15;3.85;;;20.80;99.90;;;;;;5055890;28;20218;-66
2023/06/08 09:35:03;;;;;;;8.50;3.78;;;21.00;99.90;;;;;;5073943;28;20178;-64
2023/06/08 09:37:33;;;;;;;9.10;3.58;;;21.00;99.90;;;;;;5064885;28;20181;-64
2023/06/08 09:40:00;;;;;;;7.32;3.70;;;21.10;99.90;;;;;;5069790;28;20631;-65
2023/06/08 09:42:43;;;;;;;8.45;3.85;;;21.20;99.90;;;;;;5070130;28;20170;-64
2023/06/08 09:45:12;;;;;;;10.93;3.80;;;21.00;99.90;;;;;;5053609;28;20176;-65
2023/06/08 09:47:38;;;;;;;9.52;3.65;;;21.40;99.90;;;;;;5053430;28;20204;-63
2023/06/08 09:50:07;;;;;;;4.53;3.38;;;21.10;99.90;;;;;;5053571;28;20209;-64
2023/06/08 09:52:34;;;;;;;10.82;3.75;;;21.40;99.90;;;;;;5053687;28;20200;-65
2023/06/08 09:55:00;;;;;;;16.45;4.43;;;21.60;99.90;;;;;;5060129;28;20255;-65
2023/06/08 09:57:30;;;;;;;22.52;3.95;;;22.10;99.90;;;;;;5073442;28;20168;-65
2023/06/08 10:00:20;;;;;;;13.07;3.72;;;22.00;99.90;;;;;;5073559;28;20631;-65
2023/06/08 10:03:14;;;;;;;8.50;3.88;;;22.30;99.90;;;;;;5073481;28;20589;-65
2023/06/08 10:05:45;;;;;;;10.23;3.65;;;22.00;99.90;;;;;;5055152;28;20681;-64
2023/06/08 10:08:14;;;;;;;6.60;3.47;;;22.50;99.90;;;;;;5073016;28;20185;-65
2023/06/08 10:10:41;;;;;;;8.13;3.72;;;22.20;99.90;;;;;;5073103;28;20184;-65
2023/06/08 10:13:09;;;;;;;7.97;3.88;;;22.50;99.90;;;;;;5073082;28;20176;-64
2023/06/08 10:15:36;;;;;;;7.28;3.60;;;22.50;99.90;;;;;;5073168;28;20196;-64
2023/06/08 10:18:03;;;;;;;12.43;3.75;;;22.40;99.90;;;;;;5072762;28;20639;-64
2023/06/08 10:20:30;;;;;;;8.77;4.22;;;22.60;99.90;;;;;;5072728;28;20172;-63
2023/06/08 10:22:58;;;;;;;8.52;4.13;;;22.30;99.90;;;;;;5072912;28;20168;-65
2023/06/08 10:25:28;;;;;;;8.68;3.70;;;22.50;99.90;;;;;;5073043;28;20177;-64
2023/06/08 10:27:54;;;;;;;17.60;4.53;;;23.00;99.90;;;;;;5072756;28;20200;-65
2023/06/08 10:30:31;;;;;;;7.45;3.60;;;22.70;99.90;;;;;;5072379;28;20172;-65
2023/06/08 10:33:15;;;;;;;6.65;3.60;;;23.00;99.90;;;;;;5072315;28;20294;-65
2023/06/08 10:35:43;;;;;;;11.25;3.85;;;23.30;99.90;;;;;;5072611;28;20281;-65
2023/06/08 10:38:16;;;;;;;10.07;3.58;;;23.60;99.90;;;;;;5072522;28;20274;-65
2023/06/08 10:40:49;;;;;;;10.40;3.90;;;23.90;99.90;;;;;;5072676;28;20252;-65
2023/06/08 10:43:15;;;;;;;10.30;4.00;;;23.70;99.90;;;;;;5072529;28;20172;-65
2023/06/08 10:45:43;;;;;;;9.02;3.20;;;23.80;99.90;;;;;;5072327;28;20306;-65
2023/06/08 10:48:13;;;;;;;9.18;3.97;;;23.80;99.90;;;;;;5054402;28;20209;-64
2023/06/08 10:50:41;;;;;;;7.38;3.78;;;24.00;99.90;;;;;;5072389;28;20172;-64
2023/06/08 10:53:07;;;;;;;8.45;3.70;;;24.10;99.90;;;;;;5071491;28;20635;-65
2023/06/08 10:55:33;;;;;;;12.55;4.40;;;24.60;99.90;;;;;;5072349;28;20180;-64
2023/06/08 10:58:14;;;;;;;16.73;4.95;;;24.50;99.90;;;;;;5072077;28;20179;-64
2023/06/08 11:00:44;;;;;;;8.93;3.92;;;24.00;99.90;;;;;;5072161;28;20631;-64
2023/06/08 11:03:15;;;;;;;10.75;4.68;;;24.10;99.90;;;;;;5072149;28;20197;-65
2023/06/08 11:05:43;;;;;;;9.15;4.32;;;24.30;99.90;;;;;;5072202;28;20195;-65
2023/06/08 11:08:10;;;;;;;8.95;4.20;;;24.80;99.90;;;;;;5072083;28;20196;-63
2023/06/08 11:10:39;;;;;;;12.80;4.35;;;24.70;99.90;;;;;;5071749;28;20681;-65
2023/06/08 11:13:10;;;;;;;10.60;4.45;;;24.80;99.90;;;;;;5072115;28;20658;-64
2023/06/08 11:15:43;;;;;;;12.15;4.82;;;24.80;99.90;;;;;;5071868;28;20210;-64
2023/06/08 11:18:09;;;;;;;11.82;4.13;;;24.70;99.90;;;;;;5071634;28;20176;-64
2023/06/08 11:20:37;;;;;;;17.73;4.43;;;24.70;99.90;;;;;;5071817;28;20180;-63
2023/06/08 11:23:09;;;;;;;12.75;4.03;;;25.30;99.90;;;;;;5071872;28;20160;-65
2023/06/08 11:25:35;;;;;;;9.65;4.15;;;25.40;99.90;;;;;;5071705;28;20237;-65
2023/06/08 11:28:02;;;;;;;13.18;3.75;;;25.40;99.90;;;;;;5071589;28;20667;-65
2023/06/08 11:30:31;;;;;;;11.50;4.70;;;25.50;99.90;;;;;;5071659;28;20214;-65
2023/06/08 11:32:57;;;;;;;11.30;4.25;;;25.70;99.90;;;;;;5071484;28;20173;-66
2023/06/08 11:35:23;;;;;;;8.82;4.45;;;25.90;99.90;;;;;;5070928;28;20269;-64
2023/06/08 11:37:53;;;;;;;10.68;4.05;;;25.90;97.50;;;;;;5071287;28;20180;-64
2023/06/08 11:40:19;;;;;;;11.80;3.60;;;25.80;96.80;;;;;;5071602;28;20172;-64
2023/06/08 11:42:46;;;;;;;10.98;3.80;;;25.80;97.80;;;;;;5071156;28;20208;-65
2023/06/08 11:45:13;;;;;;;7.65;3.92;;;25.90;99.80;;;;;;5071155;28;20180;-66
2023/06/08 11:47:41;;;;;;;9.07;4.40;;;26.50;99.90;;;;;;5071114;28;20180;-65
2023/06/08 11:50:07;;;;;;;10.10;4.13;;;26.40;94.10;;;;;;5070982;28;20237;-65
2023/06/08 11:52:34;;;;;;;8.77;4.57;;;27.00;90.80;;;;;;5070984;28;20204;-65
2023/06/08 11:55:04;;;;;;;13.27;4.68;;;26.50;75.60;;;;;;5071242;28;20165;-64
2023/06/08 11:57:41;;;;;;;9.93;4.22;;;25.70;88.40;;;;;;5071253;28;20161;-65
2023/06/08 12:00:28;;;;;;;10.95;4.40;;;26.20;94.60;;;;;;5071097;28;20226;-64
2023/06/08 12:02:58;;;;;;;9.23;4.47;;;26.50;95.70;;;;;;5070846;28;20171;-64
2023/06/08 12:05:25;;;;;;;11.07;4.38;;;27.00;88.50;;;;;;5057183;28;20204;-64
2023/06/08 12:08:00;;;;;;;9.80;4.22;;;27.20;75.00;;;;;;5070996;28;20200;-65
2023/06/08 12:10:38;;;;;;;9.57;3.85;;;27.30;72.90;;;;;;5061779;28;20168;-65
2023/06/08 12:13:08;;;;;;;8.18;3.70;;;27.60;65.60;;;;;;5033066;28;20223;-66
2023/06/08 12:15:39;;;;;;;9.32;4.10;;;27.80;64.20;;;;;;5050885;28;20267;-65
2023/06/08 12:18:05;;;;;;;7.68;4.78;;;27.80;55.90;;;;;;5035868;28;20172;-65
2023/06/08 12:20:33;;;;;;;8.75;4.25;;;27.20;49.30;;;;;;5068629;28;20173;-65
2023/06/08 12:22:59;;;;;;;10.77;4.20;;;27.20;55.00;;;;;;5051780;28;20203;-65
2023/06/08 12:25:24;;;;;;;8.52;4.03;;;27.80;52.60;;;;;;5051279;28;20550;-66
2023/06/08 12:27:50;;;;;;;9.50;4.18;;;28.00;44.80;;;;;;5050643;28;20187;-64
2023/06/08 12:30:16;;;;;;;14.65;4.80;;;27.70;44.90;;;;;;5053484;28;20547;-65
2023/06/08 12:32:42;;;;;;;13.52;4.20;;;28.10;41.80;;;;;;5070916;28;20247;-65
2023/06/08 12:35:08;;;;;;;14.07;4.63;;;28.70;39.60;;;;;;5062281;28;20595;-65
2023/06/08 12:37:34;;;;;;;8.45;4.60;;;29.10;26.60;;;;;;5054645;28;20318;-66
2023/06/08 12:40:00;;;;;;;11.07;4.22;;;27.80;25.20;;;;;;5032782;28;20640;-65
2023/06/08 12:42:26;;;;;;;9.70;4.63;;;27.90;26.50;;;;;;5050432;28;20170;-65
2023/06/08 12:44:53;;;;;;;9.48;4.95;;;27.80;22.00;;;;;;5055704;28;20180;-65